Terminal Aerodrome Forecast
Issued by NWS Melbourne, FL

Home | Current Version | Previous Version | Text Only | Print | Product List | Glossary On
Versions: 1 2 3 4 5 6 7 8 9 10 11 12
000
FTUS42 KMLB 271100
TAFVRB
TAF
KVRB 271122Z 2712/2812 30007KT P6SM VCSH SCT035
     FM271400 03011KT P6SM SCT040 SCT120
     FM272300 06007KT P6SM SCT040=

USA.gov is the U.S. government's official web portal to all federal, state and local government web resources and services.